Kirishima Maru No.5 — JD2506 — position and weather

sailwx.info

Track history (hours):
 
Tides and Currents Weather Stations Pressure Air Temp Water Temp Dewpoint Dewpoint Depression Visibility Wind Speed Wind Dir Waves Ship Positions

Kirishima Maru No.5

Last reported at 2015-Aug-28 06:16 UTC. Time now 2015-Aug-28 09:37 UTC.
Position N 35°04' E 139°40'.

Length 105 m; draft 6.2 m.

Type: Tanker. MMSI: 431000338.

Date/timePositionNaut miles runAvg speedWind from/ knotsBaromVisibWave heightAir tempDewpointWater temp
2015-Aug-28 06:16N 35°04' E 139°40'1114.7
2015-Aug-28 05:33N 35°14' E 139°46'1212.4
2015-Aug-28 04:33N 35°26' E 139°45'5 4.6
2015-Aug-28 03:28N 35°31' E 139°46'0 0.0
2015-Aug-28 02:22N 35°31' E 139°46'0 0.0
2015-Aug-28 01:31N 35°31' E 139°46'0 0.0
2015-Aug-28 00:31N 35°31' E 139°46'0 0.0
2015-Aug-27 23:31N 35°31' E 139°46'4 4.5
2015-Aug-27 22:33N 35°28' E 139°42'5 4.9
2015-Aug-27 21:33N 35°24' E 139°45'0 0.0
2015-Aug-27 20:33N 35°24' E 139°45'0 0.0
2015-Aug-27 19:33N 35°24' E 139°45'0 0.0
2015-Aug-27 18:33N 35°24' E 139°45'0 0.0
2015-Aug-27 17:33N 35°24' E 139°45'0 0.0
2015-Aug-27 16:33N 35°24' E 139°45'0 0.0
2015-Aug-27 15:33N 35°24' E 139°45'0 0.0
2015-Aug-27 14:33N 35°24' E 139°45'0 0.0
2015-Aug-27 13:33N 35°24' E 139°45'0 0.0
2015-Aug-27 12:33N 35°24' E 139°45'0 0.0
2015-Aug-27 11:33N 35°24' E 139°45'0 0.0
2015-Aug-27 10:33N 35°24' E 139°45'0 0.0
2015-Aug-27 09:33N 35°24' E 139°45'0 0.0
2015-Aug-27 08:33N 35°24' E 139°45'0 0.0
2015-Aug-27 07:33N 35°24' E 139°45'0 0.0
2015-Aug-27 06:33N 35°24' E 139°45'0 0.1
2015-Aug-27 05:30N 35°24' E 139°45'0 0.0
2015-Aug-27 04:33N 35°24' E 139°45'9 9.4
2015-Aug-27 03:33N 35°14' E 139°47'1413.8
2015-Aug-27 02:33N 35°01' E 139°43'1411.6
2015-Aug-27 01:20N 34°52' E 139°57'1114.6
2015-Aug-27 00:33N 34°57' E 140°09'1912.6
2015-Aug-26 23:04N 35°08' E 140°28'611.5
2015-Aug-26 22:31N 35°13' E 140°32'1413.6
2015-Aug-26 21:30N 35°24' E 140°43'1314.0
2015-Aug-26 20:33N 35°34' E 140°52'  
2015-Aug-19 09:19N 36°34' E 140°56'3114.4
2015-Aug-19 07:10N 36°04' E 140°45'914.3
2015-Aug-19 06:33N 35°56' E 140°42'2 0.3
2015-Aug-19 00:33N 35°55' E 140°41'0 0.1
2015-Aug-18 23:33N 35°55' E 140°41'5 4.7
2015-Aug-18 22:29N 35°59' E 140°44'0 0.1
2015-Aug-18 21:32N 35°59' E 140°44'0 0.0
2015-Aug-18 20:23N 35°59' E 140°44'0 0.0
2015-Aug-18 19:20N 35°59' E 140°44'0 0.1
2015-Aug-18 18:23N 35°59' E 140°44'0 0.1
2015-Aug-18 17:29N 35°59' E 140°44'0 0.0
2015-Aug-18 13:20N 35°59' E 140°44'3211.1
2015-Aug-18 10:27N 35°27' E 140°46'3916.2
2015-Aug-18 08:03N 34°59' E 140°13'  
Track history (hours):
 
Tides and Currents Weather Stations Pressure Air Temp Water Temp Dewpoint Dewpoint Depression Visibility Wind Speed Wind Dir Waves Ship Positions

Kirishima Maru No.5

Last reported at 2015-Aug-28 06:16 UTC. Time now 2015-Aug-28 09:37 UTC.
Position N 35°04' E 139°40'.

Length 105 m; draft 6.2 m.

Type: Tanker. MMSI: 431000338.

Date/timePositionNaut miles runAvg speedWind from/ knotsBaromVisibWave heightAir tempDewpointWater temp
2015-Aug-28 06:16N 35°04' E 139°40'1114.7
2015-Aug-28 05:33N 35°14' E 139°46'1212.4
2015-Aug-28 04:33N 35°26' E 139°45'5 4.6
2015-Aug-28 03:28N 35°31' E 139°46'0 0.0
2015-Aug-28 02:22N 35°31' E 139°46'0 0.0
2015-Aug-28 01:31N 35°31' E 139°46'0 0.0
2015-Aug-28 00:31N 35°31' E 139°46'0 0.0
2015-Aug-27 23:31N 35°31' E 139°46'4 4.5
2015-Aug-27 22:33N 35°28' E 139°42'5 4.9
2015-Aug-27 21:33N 35°24' E 139°45'0 0.0
2015-Aug-27 20:33N 35°24' E 139°45'0 0.0
2015-Aug-27 19:33N 35°24' E 139°45'0 0.0
2015-Aug-27 18:33N 35°24' E 139°45'0 0.0
2015-Aug-27 17:33N 35°24' E 139°45'0 0.0
2015-Aug-27 16:33N 35°24' E 139°45'0 0.0
2015-Aug-27 15:33N 35°24' E 139°45'0 0.0
2015-Aug-27 14:33N 35°24' E 139°45'0 0.0
2015-Aug-27 13:33N 35°24' E 139°45'0 0.0
2015-Aug-27 12:33N 35°24' E 139°45'0 0.0
2015-Aug-27 11:33N 35°24' E 139°45'0 0.0
2015-Aug-27 10:33N 35°24' E 139°45'0 0.0
2015-Aug-27 09:33N 35°24' E 139°45'0 0.0
2015-Aug-27 08:33N 35°24' E 139°45'0 0.0
2015-Aug-27 07:33N 35°24' E 139°45'0 0.0
2015-Aug-27 06:33N 35°24' E 139°45'0 0.1
2015-Aug-27 05:30N 35°24' E 139°45'0 0.0
2015-Aug-27 04:33N 35°24' E 139°45'9 9.4
2015-Aug-27 03:33N 35°14' E 139°47'1413.8
2015-Aug-27 02:33N 35°01' E 139°43'1411.6
2015-Aug-27 01:20N 34°52' E 139°57'1114.6
2015-Aug-27 00:33N 34°57' E 140°09'1912.6
2015-Aug-26 23:04N 35°08' E 140°28'611.5
2015-Aug-26 22:31N 35°13' E 140°32'1413.6
2015-Aug-26 21:30N 35°24' E 140°43'1314.0
2015-Aug-26 20:33N 35°34' E 140°52'  
2015-Aug-19 09:19N 36°34' E 140°56'3114.4
2015-Aug-19 07:10N 36°04' E 140°45'914.3
2015-Aug-19 06:33N 35°56' E 140°42'2 0.3
2015-Aug-19 00:33N 35°55' E 140°41'0 0.1
2015-Aug-18 23:33N 35°55' E 140°41'5 4.7
2015-Aug-18 22:29N 35°59' E 140°44'0 0.1
2015-Aug-18 21:32N 35°59' E 140°44'0 0.0
2015-Aug-18 20:23N 35°59' E 140°44'0 0.0
2015-Aug-18 19:20N 35°59' E 140°44'0 0.1
2015-Aug-18 18:23N 35°59' E 140°44'0 0.1
2015-Aug-18 17:29N 35°59' E 140°44'0 0.0
2015-Aug-18 13:20N 35°59' E 140°44'3211.1
2015-Aug-18 10:27N 35°27' E 140°46'3916.2
2015-Aug-18 08:03N 34°59' E 140°13'  

Dump ship's entire track history